Time;durP1;ratioP1;P1;durP2;ratioP2;P2;SDS_P1;SDS_P2;PMS_P1;PMS_P2;Temp;Humidity;BMP_temperature;BMP_pressure;BME280_temperature;BME280_humidity;BME280_pressure;Samples;Min_cycle;Max_cycle;Signal;HPM_P1;HPM_P2
2023/09/12 00:00:05;;;;;;;7.73;5.03;;;;;;;20.83;100.00;100391.59;694489;28;1691;-64
2023/09/12 00:00:32;;;;;;;8.23;4.95;;;;;;;20.84;100.00;100403.94;696100;28;1206;-64
2023/09/12 00:00:52;;;;;;;9.83;5.13;;;;;;;20.83;100.00;100404.88;694723;28;4569;-63
2023/09/12 00:01:12;;;;;;;6.30;4.95;;;;;;;20.81;100.00;100404.97;696029;28;1210;-64
2023/09/12 00:01:33;;;;;;;6.60;4.90;;;;;;;20.81;100.00;100406.75;695497;28;1967;-63
2023/09/12 00:01:53;;;;;;;7.07;5.03;;;;;;;20.81;100.00;100406.75;693355;28;1728;-63
2023/09/12 00:02:14;;;;;;;6.70;4.97;;;;;;;20.77;100.00;100407.84;694949;28;1234;-63
2023/09/12 00:02:34;;;;;;;6.03;4.60;;;;;;;20.76;100.00;100407.00;693266;28;1192;-64
2023/09/12 00:02:54;;;;;;;7.40;4.95;;;;;;;20.75;100.00;100411.47;692606;28;3117;-63
2023/09/12 00:03:19;;;;;;;8.20;5.27;;;;;;;20.75;100.00;100411.47;694830;28;1158;-64
2023/09/12 00:03:42;;;;;;;6.70;5.13;;;;;;;20.74;100.00;100404.41;690074;28;1364;-63
2023/09/12 00:04:02;;;;;;;7.20;4.82;;;;;;;20.77;100.00;100410.50;688511;28;5053;-64
2023/09/12 00:04:23;;;;;;;7.53;4.75;;;;;;;20.79;100.00;100413.94;691580;28;1274;-64
2023/09/12 00:04:43;;;;;;;7.20;5.07;;;;;;;20.79;100.00;100412.13;692737;28;1367;-63
2023/09/12 00:05:04;;;;;;;5.95;4.72;;;;;;;20.82;100.00;100416.44;691779;28;1820;-63
2023/09/12 00:05:24;;;;;;;6.43;4.50;;;;;;;20.82;100.00;100409.31;692920;28;1242;-63
2023/09/12 00:05:53;;;;;;;6.27;4.73;;;;;;;20.83;100.00;100405.72;695789;28;1230;-63
2023/09/12 00:06:14;;;;;;;6.13;4.85;;;;;;;20.97;100.00;100415.63;695401;28;892;-63
2023/09/12 00:06:34;;;;;;;5.70;4.72;;;;;;;20.95;100.00;100414.88;695666;28;1439;-64
2023/09/12 00:06:55;;;;;;;5.90;4.47;;;;;;;21.05;100.00;100408.13;694658;28;5783;-63
2023/09/12 00:07:15;;;;;;;5.67;4.73;;;;;;;21.03;100.00;100415.34;695981;28;1499;-63
2023/09/12 00:07:36;;;;;;;6.40;5.03;;;;;;;20.96;100.00;100408.59;696313;28;1424;-63
2023/09/12 00:07:56;;;;;;;5.90;4.70;;;;;;;20.93;100.00;100408.75;694033;28;1755;-63
2023/09/12 00:08:17;;;;;;;6.20;4.50;;;;;;;20.91;100.00;100415.97;695467;28;1178;-64
2023/09/12 00:08:37;;;;;;;6.05;4.70;;;;;;;20.83;100.00;100413.69;695605;28;1393;-63
2023/09/12 00:08:57;;;;;;;6.87;4.97;;;;;;;20.83;100.00;100405.72;693926;28;1106;-63
2023/09/12 00:09:18;;;;;;;7.73;4.83;;;;;;;20.78;100.00;100410.41;694434;28;1340;-63
2023/09/12 00:09:38;;;;;;;6.55;4.43;;;;;;;20.73;100.00;100405.34;696231;28;1234;-63
2023/09/12 00:09:58;;;;;;;6.43;4.70;;;;;;;20.77;100.00;100402.53;694678;28;4350;-63
2023/09/12 00:10:19;;;;;;;5.73;4.70;;;;;;;20.74;100.00;100401.75;695085;28;1265;-63
2023/09/12 00:10:40;;;;;;;7.00;4.90;;;;;;;20.73;100.00;100408.00;695958;28;1116;-63
2023/09/12 00:11:12;;;;;;;6.60;4.88;;;;;;;20.67;100.00;100405.66;694425;28;1663;-63
2023/09/12 00:11:32;;;;;;;5.97;4.40;;;;;;;20.64;100.00;100411.09;695793;28;1332;-63
2023/09/12 00:11:52;;;;;;;6.80;4.60;;;;;;;20.61;100.00;100410.41;694625;28;1757;-63
2023/09/12 00:12:16;;;;;;;7.07;4.70;;;;;;;20.69;100.00;100401.13;696251;28;1289;-63
2023/09/12 00:12:37;;;;;;;7.20;4.78;;;;;;;20.69;100.00;100405.59;695036;28;1171;-63
2023/09/12 00:13:00;;;;;;;7.47;4.70;;;;;;;20.72;100.00;100410.75;694462;28;4361;-63
2023/09/12 00:13:21;;;;;;;6.38;4.68;;;;;;;20.67;100.00;100400.34;695672;28;1341;-63
2023/09/12 00:13:41;;;;;;;6.50;4.60;;;;;;;20.68;100.00;100407.38;695721;28;1360;-63
2023/09/12 00:14:01;;;;;;;6.67;4.80;;;;;;;20.74;100.00;100404.41;695164;28;1847;-63
2023/09/12 00:14:22;;;;;;;6.57;4.95;;;;;;;20.71;100.00;100407.25;695750;28;1456;-64
2023/09/12 00:14:42;;;;;;;6.20;4.43;;;;;;;20.67;100.00;100410.97;695934;28;1250;-64
2023/09/12 00:15:04;;;;;;;6.80;4.50;;;;;;;20.72;100.00;100406.28;694578;28;2318;-65
2023/09/12 00:15:24;;;;;;;5.57;4.45;;;;;;;20.66;100.00;100406.56;695173;28;1294;-63
2023/09/12 00:15:44;;;;;;;6.07;4.60;;;;;;;20.64;100.00;100407.59;695956;28;1385;-63
2023/09/12 00:16:06;;;;;;;7.43;4.60;;;;;;;20.60;100.00;100412.19;694964;28;4409;-63
2023/09/12 00:16:26;;;;;;;7.40;4.50;;;;;;;20.61;100.00;100407.75;695585;28;3457;-63
2023/09/12 00:16:46;;;;;;;5.83;4.20;;;;;;;20.55;100.00;100414.22;695862;28;1249;-63
2023/09/12 00:17:07;;;;;;;5.65;4.55;;;;;;;20.52;100.00;100409.06;693979;28;1297;-65
2023/09/12 00:17:27;;;;;;;7.07;4.87;;;;;;;20.51;100.00;100410.00;695260;28;1301;-63
2023/09/12 00:17:49;;;;;;;6.65;4.63;;;;;;;20.52;100.00;100414.38;695874;28;1278;-63
2023/09/12 00:18:09;;;;;;;6.75;4.45;;;;;;;20.51;100.00;100415.31;696537;28;1215;-63
2023/09/12 00:18:29;;;;;;;7.10;4.78;;;;;;;20.51;100.00;100413.50;694885;28;1376;-63
2023/09/12 00:18:50;;;;;;;6.87;4.50;;;;;;;20.60;100.00;100417.50;694366;28;4452;-63
2023/09/12 00:19:10;;;;;;;6.77;4.40;;;;;;;20.55;100.00;100414.22;696450;28;1210;-64
2023/09/12 00:19:31;;;;;;;6.28;4.40;;;;;;;20.51;100.00;100410.00;696052;28;1435;-63
2023/09/12 00:19:51;;;;;;;6.07;4.50;;;;;;;20.49;100.00;100417.19;693086;28;2254;-64
2023/09/12 00:20:11;;;;;;;7.47;4.60;;;;;;;20.48;100.00;100412.78;695812;28;1402;-65
2023/09/12 00:20:32;;;;;;;6.60;4.35;;;;;;;20.46;100.00;100412.88;695628;28;1363;-64
2023/09/12 00:20:52;;;;;;;6.70;4.40;;;;;;;20.45;100.00;100412.97;694222;28;2362;-63
2023/09/12 00:21:13;;;;;;;5.93;4.20;;;;;;;20.53;100.00;100418.75;694361;28;1281;-63
2023/09/12 00:21:33;;;;;;;6.87;4.47;;;;;;;20.51;100.00;100413.50;696132;28;1973;-63
2023/09/12 00:21:54;;;;;;;6.83;4.40;;;;;;;20.50;100.00;100414.44;693341;28;4474;-62
2023/09/12 00:22:14;;;;;;;6.80;4.30;;;;;;;20.45;100.00;100418.28;695272;28;1436;-63
2023/09/12 00:22:34;;;;;;;7.00;4.38;;;;;;;20.50;100.00;100418.91;693990;28;1170;-62
2023/09/12 00:22:56;;;;;;;6.03;4.27;;;;;;;20.48;100.00;100418.09;691837;28;2399;-63
2023/09/12 00:23:16;;;;;;;5.68;3.95;;;;;;;20.45;100.00;100415.63;692918;28;1312;-64
2023/09/12 00:23:36;;;;;;;6.50;4.20;;;;;;;20.44;100.00;100416.56;695240;28;1262;-63
2023/09/12 00:23:57;;;;;;;6.37;4.40;;;;;;;20.42;100.00;100414.84;695523;28;1759;-63
2023/09/12 00:24:17;;;;;;;6.20;4.35;;;;;;;20.38;100.00;100413.28;695617;28;1268;-63
2023/09/12 00:24:40;;;;;;;6.47;4.20;;;;;;;20.37;100.00;100408.03;696087;28;1269;-65
2023/09/12 00:25:01;;;;;;;6.88;4.30;;;;;;;20.46;100.00;100409.38;693716;28;5531;-63
2023/09/12 00:25:21;;;;;;;6.97;4.45;;;;;;;20.41;100.00;100409.63;695899;28;1308;-63
2023/09/12 00:25:42;;;;;;;7.13;4.43;;;;;;;20.35;100.00;100410.78;695186;28;1238;-63
2023/09/12 00:26:02;;;;;;;6.10;4.10;;;;;;;20.34;100.00;100413.50;695185;28;1723;-62
2023/09/12 00:26:22;;;;;;;6.00;4.20;;;;;;;20.33;100.00;100415.28;695473;28;1234;-63
2023/09/12 00:26:44;;;;;;;5.78;4.30;;;;;;;20.30;100.00;100417.22;694898;28;1309;-63
2023/09/12 00:27:05;;;;;;;5.70;4.37;;;;;;;20.38;100.00;100407.97;693348;28;2123;-63
2023/09/12 00:27:26;;;;;;;5.57;4.20;;;;;;;20.55;100.00;100414.22;693045;28;2095;-63
2023/09/12 00:27:46;;;;;;;5.95;4.30;;;;;;;20.57;100.00;100412.34;694491;28;1309;-63
2023/09/12 00:28:07;;;;;;;6.10;4.20;;;;;;;20.54;100.00;100412.50;692907;28;4509;-63
2023/09/12 00:28:27;;;;;;;6.38;4.32;;;;;;;20.49;100.00;100407.44;693881;28;1325;-63
2023/09/12 00:28:48;;;;;;;5.77;4.20;;;;;;;20.41;100.00;100415.78;695965;28;1352;-64
2023/09/12 00:29:09;;;;;;;5.68;4.10;;;;;;;20.47;100.00;100413.75;692254;28;1492;-65
2023/09/12 00:29:29;;;;;;;5.13;4.00;;;;;;;20.37;100.00;100410.72;694332;28;1242;-63
2023/09/12 00:29:50;;;;;;;5.63;4.10;;;;;;;20.32;100.00;100410.06;691036;28;2060;-64
2023/09/12 00:30:11;;;;;;;6.88;4.20;;;;;;;20.33;100.00;100409.97;693140;28;1416;-63
2023/09/12 00:30:31;;;;;;;7.13;4.22;;;;;;;20.32;100.00;100404.75;689409;28;1422;-62
2023/09/12 00:30:52;;;;;;;6.95;4.32;;;;;;;20.36;100.00;100409.81;684641;28;4686;-63
2023/09/12 00:31:13;;;;;;;6.00;4.20;;;;;;;20.35;100.00;100401.94;687477;28;1255;-63
2023/09/12 00:31:33;;;;;;;6.40;4.20;;;;;;;20.40;100.00;100403.44;684378;28;1252;-63
2023/09/12 00:31:53;;;;;;;5.70;4.20;;;;;;;20.35;100.00;100402.81;686187;28;1563;-62
2023/09/12 00:32:14;;;;;;;5.75;4.40;;;;;;;20.38;100.00;100405.31;687946;28;1243;-63
2023/09/12 00:32:34;;;;;;;7.00;4.20;;;;;;;20.41;100.00;100402.50;691275;28;1437;-63
2023/09/12 00:32:57;;;;;;;6.60;4.07;;;;;;;20.34;100.00;100394.91;692248;28;1440;-63
2023/09/12 00:33:17;;;;;;;6.60;4.00;;;;;;;20.34;100.00;100398.44;690569;28;1230;-63
2023/09/12 00:33:40;;;;;;;6.37;3.80;;;;;;;20.31;100.00;100395.94;693231;28;911;-63
2023/09/12 00:34:01;;;;;;;6.18;3.95;;;;;;;20.28;100.00;100395.22;688963;28;4378;-62
2023/09/12 00:34:21;;;;;;;5.73;4.03;;;;;;;20.22;100.00;100393.75;688093;28;1381;-62
2023/09/12 00:34:42;;;;;;;5.82;4.30;;;;;;;20.22;100.00;100397.22;687802;28;1239;-63
2023/09/12 00:35:02;;;;;;;6.30;4.17;;;;;;;20.31;100.00;100389.75;688972;28;1795;-63
2023/09/12 00:35:22;;;;;;;5.83;4.03;;;;;;;20.25;100.00;100390.91;689542;28;1179;-63
2023/09/12 00:35:44;;;;;;;5.32;4.00;;;;;;;20.22;100.00;100389.28;687575;28;1248;-65
2023/09/12 00:36:04;;;;;;;5.43;3.90;;;;;;;20.23;100.00;100383.03;688950;28;1781;-63
2023/09/12 00:36:25;;;;;;;6.30;4.10;;;;;;;20.27;100.00;100386.41;692276;28;1235;-64
2023/09/12 00:36:45;;;;;;;7.47;4.03;;;;;;;20.34;100.00;100384.28;689863;28;1326;-64
2023/09/12 00:37:08;;;;;;;8.07;3.95;;;;;;;20.36;100.00;100383.28;688268;28;4326;-63
2023/09/12 00:37:28;;;;;;;7.15;3.88;;;;;;;20.27;100.00;100386.41;690068;28;1414;-64
2023/09/12 00:37:49;;;;;;;6.53;4.03;;;;;;;20.29;100.00;100381.88;690835;28;1303;-63
2023/09/12 00:38:09;;;;;;;5.87;3.83;;;;;;;20.28;100.00;100385.47;689258;28;1449;-63
2023/09/12 00:38:30;;;;;;;5.72;4.15;;;;;;;20.28;100.00;100381.94;690812;28;1218;-63
2023/09/12 00:38:50;;;;;;;6.30;3.90;;;;;;;20.21;100.00;100381.38;689661;28;5100;-62
2023/09/12 00:39:12;;;;;;;6.43;3.90;;;;;;;20.22;100.00;100383.97;690891;28;1242;-62
2023/09/12 00:39:32;;;;;;;6.13;4.00;;;;;;;20.22;100.00;100380.47;691663;28;1119;-63
2023/09/12 00:39:52;;;;;;;5.93;4.00;;;;;;;20.17;100.00;100383.34;692621;28;4411;-64
2023/09/12 00:40:13;;;;;;;6.90;4.00;;;;;;;20.17;100.00;100388.66;695181;28;1504;-63
2023/09/12 00:40:33;;;;;;;6.20;4.25;;;;;;;20.13;100.00;100383.56;695958;28;1386;-63
2023/09/12 00:40:54;;;;;;;6.30;4.03;;;;;;;20.07;100.00;100388.22;693247;28;2432;-63
2023/09/12 00:41:14;;;;;;;7.43;4.00;;;;;;;20.06;100.00;100385.66;692994;28;1385;-63
2023/09/12 00:41:34;;;;;;;5.50;3.70;;;;;;;20.06;100.00;100383.88;692878;28;1917;-63
2023/09/12 00:41:55;;;;;;;5.50;3.90;;;;;;;20.00;100.00;100389.47;692230;28;2371;-63
2023/09/12 00:42:16;;;;;;;5.80;4.00;;;;;;;19.99;100.00;100382.47;693078;28;1323;-63
2023/09/12 00:42:36;;;;;;;6.05;3.80;;;;;;;20.04;100.00;100376.94;696162;28;1440;-63
2023/09/12 00:42:57;;;;;;;6.40;3.90;;;;;;;20.08;100.00;100384.66;693807;28;4415;-63
2023/09/12 00:43:17;;;;;;;7.07;3.97;;;;;;;20.13;100.00;100381.78;695495;28;1194;-63
2023/09/12 00:43:37;;;;;;;6.23;3.83;;;;;;;20.09;100.00;100372.25;692550;28;1234;-63
2023/09/12 00:43:58;;;;;;;5.10;3.80;;;;;;;20.12;100.00;100374.75;692283;28;1088;-63
2023/09/12 00:44:18;;;;;;;5.70;3.90;;;;;;;20.04;100.00;100377.78;693096;28;1237;-63
2023/09/12 00:44:39;;;;;;;5.90;3.90;;;;;;;20.01;100.00;100377.09;693541;28;1168;-63
2023/09/12 00:44:59;;;;;;;6.00;3.85;;;;;;;20.05;100.00;100374.19;691910;28;1769;-63
2023/09/12 00:45:19;;;;;;;5.47;3.90;;;;;;;20.12;100.00;100369.44;692558;28;1144;-64
2023/09/12 00:45:41;;;;;;;5.00;3.60;;;;;;;20.12;100.00;100363.25;695353;28;1241;-64
2023/09/12 00:46:01;;;;;;;5.45;3.70;;;;;;;20.11;100.00;100361.56;691059;28;4576;-63
2023/09/12 00:46:23;;;;;;;5.60;3.90;;;;;;;20.12;100.00;100363.25;692461;28;2875;-63
2023/09/12 00:46:45;;;;;;;6.22;4.20;;;;;;;20.13;100.00;100359.69;692842;28;1215;-63
2023/09/12 00:47:06;;;;;;;5.95;4.07;;;;;;;20.11;100.00;100361.56;691021;28;1808;-63
2023/09/12 00:47:28;;;;;;;6.57;4.00;;;;;;;20.06;100.00;100360.00;692457;28;1148;-64
2023/09/12 00:47:49;;;;;;;6.25;3.80;;;;;;;19.99;100.00;100369.19;689622;28;1326;-63
2023/09/12 00:48:12;;;;;;;6.63;3.80;;;;;;;19.95;100.00;100359.66;689150;28;1822;-63
2023/09/12 00:48:34;;;;;;;6.38;4.13;;;;;;;19.92;100.00;100359.78;689878;28;1199;-65
2023/09/12 00:48:57;;;;;;;5.53;3.80;;;;;;;19.82;100.00;100356.72;686095;28;4316;-64
2023/09/12 00:49:18;;;;;;;6.43;3.78;;;;;;;19.81;100.00;100360.31;689131;28;1250;-63
2023/09/12 00:49:39;;;;;;;6.90;3.90;;;;;;;19.78;100.00;100354.28;685945;28;1925;-63
2023/09/12 00:50:00;;;;;;;6.35;4.00;;;;;;;19.78;100.00;100356.94;687151;28;1449;-65
2023/09/12 00:50:25;;;;;;;5.68;4.10;;;;;;;19.78;100.00;100357.78;690939;28;1251;-63
2023/09/12 00:50:47;;;;;;;6.63;4.10;;;;;;;19.75;100.00;100355.28;693948;28;1345;-62
2023/09/12 00:51:07;;;;;;;6.55;4.10;;;;;;;19.71;100.00;100351.91;691705;28;1677;-63
2023/09/12 00:51:29;;;;;;;5.43;3.90;;;;;;;19.70;100.00;100351.97;694298;28;1514;-63
2023/09/12 00:51:50;;;;;;;5.97;4.00;;;;;;;19.69;100.00;100352.94;692365;28;4481;-63
2023/09/12 00:52:13;;;;;;;5.93;4.05;;;;;;;19.66;100.00;100347.75;689324;28;1290;-63
2023/09/12 00:52:35;;;;;;;5.75;3.70;;;;;;;19.71;100.00;100351.06;690186;28;1318;-62
2023/09/12 00:52:56;;;;;;;5.30;3.80;;;;;;;19.73;100.00;100350.06;689219;28;1700;-63
2023/09/12 00:53:18;;;;;;;5.18;3.80;;;;;;;19.71;100.00;100348.41;690527;28;1349;-63
2023/09/12 00:53:39;;;;;;;5.55;3.90;;;;;;;19.66;100.00;100340.69;693047;28;1345;-63
2023/09/12 00:53:59;;;;;;;4.87;3.60;;;;;;;19.67;100.00;100342.38;692930;28;1685;-63
2023/09/12 00:54:20;;;;;;;5.10;3.80;;;;;;;19.65;100.00;100341.59;696293;28;1405;-63
2023/09/12 00:54:40;;;;;;;5.00;3.65;;;;;;;19.67;100.00;100341.53;689993;28;1282;-63
2023/09/12 00:55:01;;;;;;;5.13;3.53;;;;;;;19.66;100.00;100335.38;686385;28;4525;-63
2023/09/12 00:55:22;;;;;;;6.07;3.80;;;;;;;19.70;100.00;100334.31;690506;28;1306;-63
2023/09/12 00:55:51;;;;;;;5.60;3.67;;;;;;;19.71;100.00;100343.09;687444;28;1638;-63
2023/09/12 00:56:13;;;;;;;5.40;3.60;;;;;;;19.76;100.00;100341.09;684060;28;1364;-63
2023/09/12 00:56:34;;;;;;;5.50;3.70;;;;;;;19.74;100.00;100338.53;687755;28;1248;-63
2023/09/12 00:56:54;;;;;;;5.27;3.73;;;;;;;19.68;100.00;100336.16;690817;28;1783;-63
2023/09/12 00:57:14;;;;;;;5.95;3.83;;;;;;;19.66;100.00;100334.50;692829;28;1532;-63
2023/09/12 00:57:36;;;;;;;5.60;3.90;;;;;;;19.64;100.00;100339.88;692963;28;1462;-62
2023/09/12 00:57:56;;;;;;;6.40;3.70;;;;;;;19.63;100.00;100332.84;692199;28;4702;-63
2023/09/12 00:58:17;;;;;;;6.50;3.90;;;;;;;19.60;100.00;100329.50;694772;28;1857;-62
2023/09/12 00:58:38;;;;;;;5.72;3.80;;;;;;;19.60;100.00;100338.31;694191;28;1301;-63
2023/09/12 00:59:01;;;;;;;5.97;4.10;;;;;;;19.58;100.00;100332.22;689679;28;1806;-63
2023/09/12 00:59:22;;;;;;;6.40;4.05;;;;;;;19.54;100.00;100328.84;689864;28;1397;-63
2023/09/12 00:59:43;;;;;;;5.75;4.00;;;;;;;19.50;100.00;100327.28;690482;28;1329;-63
2023/09/12 01:00:11;;;;;;;7.72;4.10;;;;;;;19.52;100.00;100327.19;689799;28;1690;-63
2023/09/12 01:00:31;;;;;;;6.53;3.85;;;;;;;19.52;100.00;100332.50;692597;28;1203;-63
2023/09/12 01:00:51;;;;;;;5.77;4.30;;;;;;;19.49;100.00;100332.66;689486;28;4494;-63
2023/09/12 01:01:12;;;;;;;5.83;3.80;;;;;;;19.50;100.00;100329.09;694676;28;1432;-63
2023/09/12 01:01:33;;;;;;;7.10;3.78;;;;;;;19.48;100.00;100338.88;694311;28;1922;-63
2023/09/12 01:01:54;;;;;;;5.28;3.90;;;;;;;19.48;100.00;100336.22;693919;28;2312;-63
2023/09/12 01:02:18;;;;;;;5.40;3.95;;;;;;;19.50;100.00;100334.38;695025;28;1360;-63
2023/09/12 01:02:42;;;;;;;5.88;4.10;;;;;;;19.51;100.00;100330.81;694477;28;1277;-63
2023/09/12 01:03:03;;;;;;;5.47;4.05;;;;;;;19.51;100.00;100339.63;692780;28;1440;-63
2023/09/12 01:03:24;;;;;;;4.97;3.58;;;;;;;19.51;100.00;100338.75;694915;28;1336;-63
2023/09/12 01:03:45;;;;;;;6.00;3.75;;;;;;;19.51;100.00;100338.75;694368;28;1277;-63
2023/09/12 01:04:05;;;;;;;6.00;3.93;;;;;;;19.59;100.00;100339.22;695421;28;4596;-63
2023/09/12 01:04:27;;;;;;;5.70;3.65;;;;;;;19.59;100.00;100339.22;697319;28;1288;-63
2023/09/12 01:04:47;;;;;;;6.28;3.60;;;;;;;19.56;100.00;100342.91;696033;28;1398;-64
2023/09/12 01:05:09;;;;;;;6.93;3.90;;;;;;;19.58;100.00;100348.13;693793;28;1491;-64
2023/09/12 01:05:30;;;;;;;6.00;3.90;;;;;;;19.57;100.00;100341.97;695506;28;1360;-64
2023/09/12 01:05:51;;;;;;;5.93;3.83;;;;;;;19.56;100.00;100345.56;694122;28;1257;-64
2023/09/12 01:06:14;;;;;;;5.93;3.65;;;;;;;19.56;100.00;100353.53;695154;28;1210;-64
2023/09/12 01:06:34;;;;;;;6.10;3.95;;;;;;;19.58;100.00;100350.78;693452;28;1266;-64
2023/09/12 01:06:55;;;;;;;6.60;4.35;;;;;;;19.56;100.00;100348.22;692535;28;4544;-63
2023/09/12 01:07:15;;;;;;;6.77;4.07;;;;;;;19.61;100.00;100355.09;695375;28;1531;-64
2023/09/12 01:07:37;;;;;;;6.25;3.80;;;;;;;19.63;100.00;100351.41;691699;28;1519;-64
2023/09/12 01:07:59;;;;;;;6.10;3.90;;;;;;;19.64;100.00;100349.63;691604;28;1721;-64
2023/09/12 01:08:20;;;;;;;5.90;4.00;;;;;;;19.61;100.00;100350.63;691836;28;1259;-63
2023/09/12 01:08:40;;;;;;;6.90;4.10;;;;;;;19.61;100.00;100350.63;691788;28;1258;-63
2023/09/12 01:09:01;;;;;;;6.13;4.00;;;;;;;19.61;100.00;100360.41;691679;28;1828;-63
2023/09/12 01:09:21;;;;;;;5.67;3.87;;;;;;;19.60;100.00;100350.72;689832;28;1257;-64
2023/09/12 01:09:42;;;;;;;5.72;3.60;;;;;;;19.58;100.00;100348.13;691113;28;1432;-63
2023/09/12 01:10:03;;;;;;;6.23;3.80;;;;;;;19.58;100.00;100353.44;687388;28;4729;-64
2023/09/12 01:10:24;;;;;;;6.20;4.22;;;;;;;19.57;100.00;100354.38;686072;28;2078;-63
2023/09/12 01:10:47;;;;;;;6.43;4.30;;;;;;;19.56;100.00;100352.63;686721;28;1342;-63
2023/09/12 01:11:08;;;;;;;6.45;4.00;;;;;;;19.58;100.00;100358.75;685256;28;1898;-64
2023/09/12 01:11:30;;;;;;;5.53;4.20;;;;;;;19.55;100.00;100349.13;690015;28;1310;-64
2023/09/12 01:11:51;;;;;;;5.40;3.92;;;;;;;19.54;100.00;100357.16;691505;28;1288;-63
2023/09/12 01:12:14;;;;;;;5.27;3.87;;;;;;;19.53;100.00;100358.09;687565;28;1245;-63
2023/09/12 01:12:35;;;;;;;5.30;4.00;;;;;;;19.53;100.00;100355.44;688112;28;3439;-63
2023/09/12 01:12:55;;;;;;;5.07;3.90;;;;;;;19.50;100.00;100361.75;689096;28;4346;-64
2023/09/12 01:13:16;;;;;;;4.97;3.70;;;;;;;19.56;100.00;100356.16;687668;28;1413;-63
2023/09/12 01:13:37;;;;;;;6.00;3.70;;;;;;;19.55;100.00;100356.25;687681;28;1600;-63
2023/09/12 01:13:57;;;;;;;6.07;3.85;;;;;;;19.55;100.00;100358.91;687840;28;2223;-63
2023/09/12 01:14:17;;;;;;;6.43;4.13;;;;;;;19.54;100.00;100362.47;693255;28;1403;-63
2023/09/12 01:14:38;;;;;;;6.00;3.87;;;;;;;19.53;100.00;100355.44;692548;28;1250;-63
2023/09/12 01:14:58;;;;;;;5.65;4.40;;;;;;;19.53;100.00;100358.09;691643;28;1866;-63
2023/09/12 01:15:19;;;;;;;5.07;3.73;;;;;;;19.53;100.00;100355.44;695122;28;1305;-63
2023/09/12 01:15:39;;;;;;;5.50;3.65;;;;;;;19.56;100.00;100360.59;695412;28;1273;-63
2023/09/12 01:15:59;;;;;;;6.30;3.90;;;;;;;19.55;100.00;100353.59;693885;28;4384;-63
2023/09/12 01:16:20;;;;;;;5.73;4.00;;;;;;;19.53;100.00;100350.13;695158;28;1356;-63
2023/09/12 01:16:41;;;;;;;5.68;4.00;;;;;;;19.52;100.00;100348.41;694835;28;1304;-63
2023/09/12 01:17:02;;;;;;;5.72;3.88;;;;;;;19.53;100.00;100352.78;692324;28;1954;-63
2023/09/12 01:17:24;;;;;;;5.40;3.58;;;;;;;19.53;100.00;100350.13;692208;28;2033;-63
2023/09/12 01:17:45;;;;;;;5.47;4.00;;;;;;;19.51;100.00;100346.72;687310;28;1357;-63
2023/09/12 01:18:05;;;;;;;5.15;3.72;;;;;;;19.51;100.00;100349.38;685946;28;1409;-63
2023/09/12 01:18:26;;;;;;;5.55;3.70;;;;;;;19.52;100.00;100353.72;684066;28;1346;-63
2023/09/12 01:18:46;;;;;;;5.73;3.77;;;;;;;19.53;100.00;100350.13;683528;28;1268;-62
2023/09/12 01:19:09;;;;;;;5.72;4.00;;;;;;;19.56;100.00;100350.00;685575;28;4415;-63
2023/09/12 01:19:30;;;;;;;6.43;4.13;;;;;;;19.56;100.00;100355.28;691041;28;1353;-62
2023/09/12 01:19:50;;;;;;;5.93;4.10;;;;;;;19.55;100.00;100349.13;692582;28;895;-63
2023/09/12 01:20:20;;;;;;;5.57;3.97;;;;;;;19.56;100.00;100347.34;689494;28;1777;-63
2023/09/12 01:21:02;;;;;;;5.68;3.80;;;;;;;19.55;100.00;100346.50;690443;28;1349;-63
2023/09/12 01:21:41;;;;;;;5.57;3.70;;;;;;;19.64;100.00;100354.94;691982;28;1353;-62
2023/09/12 01:22:38;;;;;;;6.07;3.90;;;;;;;19.60;100.00;100351.56;693226;28;4619;-63
2023/09/12 01:23:24;;;;;;;6.35;3.92;;;;;;;19.54;100.00;100351.88;696509;28;2341;-63
2023/09/12 01:24:00;;;;;;;6.03;3.73;;;;;;;19.52;100.00;100349.28;698085;28;1265;-63
2023/09/12 01:24:38;;;;;;;6.00;4.00;;;;;;;19.48;100.00;100346.84;695123;28;1297;-63
2023/09/12 01:25:12;;;;;;;7.65;4.40;;;;;;;19.48;100.00;100349.50;693125;28;4299;-63
2023/09/12 01:26:16;;;;;;;6.88;4.20;;;;;;;19.46;100.00;100349.56;691658;28;2187;-63
2023/09/12 01:27:01;;;;;;;5.25;3.80;;;;;;;19.45;100.00;100347.84;692543;28;1475;-63
2023/09/12 01:27:27;;;;;;;5.90;4.18;;;;;;;19.47;100.00;100351.28;692054;28;1258;-63
2023/09/12 01:27:52;;;;;;;6.05;4.20;;;;;;;19.45;100.00;100352.28;695989;28;1325;-63
2023/09/12 01:28:15;;;;;;;5.72;4.05;;;;;;;19.45;100.00;100360.25;691204;28;6447;-63
2023/09/12 01:28:42;;;;;;;5.55;3.90;;;;;;;19.45;100.00;100357.59;693149;28;1409;-63
2023/09/12 01:29:06;;;;;;;5.88;3.70;;;;;;;19.46;100.00;100354.88;692065;28;1215;-62
2023/09/12 01:29:27;;;;;;;6.28;3.85;;;;;;;19.46;100.00;100360.16;688485;28;1389;-63
2023/09/12 01:29:52;;;;;;;6.00;4.45;;;;;;;19.46;100.00;100357.50;686817;28;1326;-63
2023/09/12 01:30:17;;;;;;;6.05;4.43;;;;;;;19.46;100.00;100354.88;684514;28;1691;-63
2023/09/12 01:30:39;;;;;;;6.03;3.97;;;;;;;19.45;100.00;100358.44;686425;28;1469;-63
2023/09/12 01:31:00;;;;;;;6.28;3.90;;;;;;;19.46;100.00;100359.31;687463;28;4626;-62
2023/09/12 01:31:23;;;;;;;6.30;3.83;;;;;;;19.47;100.00;100359.25;690712;28;1274;-63
2023/09/12 01:31:47;;;;;;;6.57;4.00;;;;;;;19.51;100.00;100362.63;694807;28;1273;-63
2023/09/12 01:32:09;;;;;;;5.57;4.10;;;;;;;19.50;100.00;100358.25;694027;28;1175;-63
2023/09/12 01:32:31;;;;;;;5.78;4.10;;;;;;;19.50;100.00;100364.41;694213;28;1285;-63
2023/09/12 01:32:52;;;;;;;6.00;4.10;;;;;;;19.49;100.00;100360.00;695844;28;1246;-63
2023/09/12 01:33:13;;;;;;;7.07;4.10;;;;;;;19.49;100.00;100364.47;695530;28;1887;-63
2023/09/12 01:33:33;;;;;;;5.83;4.03;;;;;;;19.49;100.00;100362.66;697970;28;1427;-63
2023/09/12 01:33:59;;;;;;;6.53;4.20;;;;;;;19.49;100.00;100367.13;693998;28;4427;-63
2023/09/12 01:34:20;;;;;;;6.68;4.10;;;;;;;19.52;100.00;100365.19;695621;28;1313;-63
2023/09/12 01:34:40;;;;;;;6.60;4.10;;;;;;;19.51;100.00;100368.78;694921;28;1356;-64
2023/09/12 01:35:03;;;;;;;5.90;4.25;;;;;;;19.53;100.00;100368.69;693764;28;1738;-63
2023/09/12 01:35:23;;;;;;;6.38;4.20;;;;;;;19.53;100.00;100376.66;692806;28;1266;-63
2023/09/12 01:35:46;;;;;;;6.40;3.80;;;;;;;19.52;100.00;100369.63;693363;28;1312;-64
2023/09/12 01:36:11;;;;;;;6.65;3.90;;;;;;;19.52;100.00;100364.31;691115;28;2115;-64
2023/09/12 01:36:31;;;;;;;6.30;4.05;;;;;;;19.50;100.00;100376.81;690135;28;1223;-63
2023/09/12 01:36:52;;;;;;;6.32;4.20;;;;;;;19.49;100.00;100369.78;686186;28;4321;-63
2023/09/12 01:37:12;;;;;;;6.00;4.03;;;;;;;19.50;100.00;100371.50;685984;28;1824;-63
2023/09/12 01:37:34;;;;;;;6.05;4.05;;;;;;;19.49;100.00;100373.28;689729;28;1428;-63
2023/09/12 01:37:54;;;;;;;6.78;3.80;;;;;;;19.51;100.00;100373.22;686500;28;1492;-63
2023/09/12 01:38:15;;;;;;;6.55;4.00;;;;;;;19.51;100.00;100381.19;687290;28;1417;-63
2023/09/12 01:38:35;;;;;;;6.37;4.10;;;;;;;19.49;100.00;100380.38;686697;28;1387;-63
2023/09/12 01:38:56;;;;;;;5.47;3.90;;;;;;;19.49;100.00;100385.69;685712;28;5856;-64
2023/09/12 01:39:16;;;;;;;5.40;3.97;;;;;;;19.44;100.00;100377.94;686402;28;1361;-64
2023/09/12 01:39:37;;;;;;;5.75;3.78;;;;;;;19.49;100.00;100385.69;688498;28;1607;-64
2023/09/12 01:39:58;;;;;;;5.57;3.78;;;;;;;19.51;100.00;100389.97;687311;28;4437;-63
2023/09/12 01:40:34;;;;;;;5.80;3.80;;;;;;;19.52;100.00;100388.19;687733;28;1246;-63
2023/09/12 01:40:55;;;;;;;5.20;3.80;;;;;;;19.51;100.00;100391.78;690479;28;2378;-63
2023/09/12 01:41:16;;;;;;;5.60;3.93;;;;;;;19.52;100.00;100396.13;692117;28;1309;-63
2023/09/12 01:41:42;;;;;;;5.45;3.80;;;;;;;19.52;100.00;100396.13;693070;28;1988;-63
2023/09/12 01:42:03;;;;;;;5.55;3.80;;;;;;;19.51;100.00;100394.44;690864;28;2198;-63
2023/09/12 01:42:29;;;;;;;6.68;3.75;;;;;;;19.52;100.00;100396.13;691048;28;1323;-63
2023/09/12 01:42:52;;;;;;;5.65;3.90;;;;;;;19.53;100.00;100401.34;688517;28;4381;-64
2023/09/12 01:43:16;;;;;;;4.93;3.92;;;;;;;19.49;100.00;100396.28;687596;28;2300;-63
2023/09/12 01:43:39;;;;;;;5.72;3.67;;;;;;;19.49;100.00;100399.78;686585;28;1496;-63
2023/09/12 01:44:01;;;;;;;5.38;3.67;;;;;;;19.51;100.00;100397.09;685718;28;1854;-63